createdAt,value
2019-01-03T00:00:51.624Z,0.90
2019-01-03T00:03:39.561Z,0.60
2019-01-03T00:06:28.725Z,1.97
2019-01-03T00:09:17.890Z,1.47
2019-01-03T00:12:19.342Z,1.80
2019-01-03T00:15:23.355Z,1.07
2019-01-03T00:18:27.781Z,1.07
2019-01-03T00:21:15.818Z,0.73
2019-01-03T00:24:10.921Z,0.70
2019-01-03T00:27:00.190Z,1.00
2019-01-03T00:29:55.704Z,1.33
2019-01-03T00:32:51.621Z,1.10
2019-01-03T00:35:43.764Z,0.83
2019-01-03T00:38:45.112Z,1.23
2019-01-03T00:41:37.356Z,0.50
2019-01-03T00:44:23.233Z,0.33
2019-01-03T00:47:11.075Z,0.37
2019-01-03T00:50:09.353Z,0.40
2019-01-03T00:52:57.084Z,0.40
2019-01-03T00:55:49.219Z,0.50
2019-01-03T00:58:41.344Z,0.30
2019-01-03T01:01:36.254Z,0.60
2019-01-03T01:04:24.193Z,0.50
2019-01-03T01:07:10.065Z,0.30
2019-01-03T01:10:08.051Z,0.50
2019-01-03T01:13:03.053Z,0.53
2019-01-03T01:15:50.888Z,0.50
2019-01-03T01:18:38.926Z,0.40
2019-01-03T01:21:21.333Z,0.40
2019-01-03T01:24:25.859Z,0.43
2019-01-03T01:27:07.139Z,0.40
2019-01-03T01:29:59.274Z,0.20
2019-01-03T01:32:51.409Z,0.40
2019-01-03T01:35:40.572Z,0.40
2019-01-03T01:38:32.291Z,0.13
2019-01-03T01:41:20.138Z,0.30
2019-01-03T01:44:18.413Z,0.30
2019-01-03T01:47:16.591Z,0.40
2019-01-03T01:50:24.186Z,0.50
2019-01-03T01:53:16.013Z,0.20
2019-01-03T01:56:06.409Z,0.23
2019-01-03T01:58:54.448Z,0.40
2019-01-03T02:01:43.818Z,0.20
2019-01-03T02:04:35.649Z,0.40
2019-01-03T02:07:16.927Z,0.40
2019-01-03T02:10:06.194Z,0.20
2019-01-03T02:12:54.130Z,0.30
2019-01-03T02:15:53.125Z,0.50
2019-01-03T02:18:51.507Z,0.60
2019-01-03T02:21:52.552Z,0.37
2019-01-03T02:24:40.795Z,0.30
2019-01-03T02:27:45.423Z,0.30
2019-01-03T02:30:40.425Z,0.40
2019-01-03T02:33:28.566Z,0.50
2019-01-03T02:36:20.601Z,0.60
2019-01-03T02:39:08.433Z,0.37
2019-01-03T02:42:06.507Z,0.30
2019-01-03T02:45:08.200Z,0.50
2019-01-03T02:47:57.433Z,0.33
2019-01-03T02:50:52.537Z,0.47
2019-01-03T02:53:40.679Z,0.30
2019-01-03T02:56:42.018Z,0.53
2019-01-03T02:59:43.892Z,0.80
2019-01-03T03:02:48.214Z,0.73
2019-01-03T03:05:52.431Z,0.50
2019-01-03T03:08:50.498Z,0.40
2019-01-03T03:11:48.579Z,0.70
2019-01-03T03:14:49.727Z,0.80
2019-01-03T03:17:47.076Z,0.70
2019-01-03T03:20:35.226Z,0.70
2019-01-03T03:23:24.389Z,0.60
2019-01-03T03:26:09.664Z,0.50
2019-01-03T03:29:16.853Z,0.53
2019-01-03T03:32:06.126Z,0.70
2019-01-03T03:34:54.160Z,0.47
2019-01-03T03:37:43.222Z,0.47
2019-01-03T03:40:38.433Z,0.47
2019-01-03T03:43:36.810Z,0.60
2019-01-03T03:46:26.386Z,0.40
2019-01-03T03:49:14.528Z,0.30
2019-01-03T03:52:16.090Z,0.40
2019-01-03T03:55:11.084Z,0.50
2019-01-03T03:57:59.226Z,0.50
2019-01-03T04:00:47.367Z,0.50
2019-01-03T04:03:54.964Z,0.43
2019-01-03T04:06:47.101Z,0.40
2019-01-03T04:09:34.522Z,0.50
2019-01-03T04:12:22.359Z,0.40
2019-01-03T04:15:04.253Z,3.97
2019-01-03T04:17:59.254Z,23.23
2019-01-03T04:20:47.190Z,12.07
2019-01-03T04:23:35.335Z,2.40
2019-01-03T04:26:38.518Z,1.10
2019-01-03T04:29:26.363Z,1.00
2019-01-03T04:32:14.604Z,0.67
2019-01-03T04:35:02.340Z,0.87
2019-01-03T04:37:58.569Z,0.50
2019-01-03T04:40:57.763Z,0.50
2019-01-03T04:43:53.079Z,0.50
2019-01-03T04:46:41.119Z,0.60
2019-01-03T04:49:21.897Z,0.40
2019-01-03T04:52:19.030Z,0.60
2019-01-03T04:55:11.275Z,0.50
2019-01-03T04:57:59.418Z,0.60
2019-01-03T05:00:48.685Z,0.50
2019-01-03T05:03:38.362Z,0.57
2019-01-03T05:06:30.602Z,0.40
2019-01-03T05:09:32.260Z,0.60
2019-01-03T05:12:22.451Z,0.80
2019-01-03T05:15:20.522Z,0.73
2019-01-03T05:18:08.663Z,1.10
2019-01-03T05:20:52.504Z,1.00
2019-01-03T05:23:40.446Z,0.90
2019-01-03T05:26:35.546Z,0.80
2019-01-03T05:29:24.062Z,1.00
2019-01-03T05:32:11.930Z,0.80
2019-01-03T05:35:07.156Z,0.90
2019-01-03T05:37:53.334Z,1.53
2019-01-03T05:40:54.991Z,1.60
2019-01-03T05:43:43.030Z,1.63
2019-01-03T05:46:41.108Z,1.10
2019-01-03T05:49:39.178Z,1.83
2019-01-03T05:52:27.321Z,2.00
2019-01-03T05:55:25.703Z,1.80
2019-01-03T05:58:14.048Z,2.40
2019-01-03T06:01:01.681Z,4.40
2019-01-03T06:03:51.049Z,4.60
2019-01-03T06:06:40.212Z,4.70
2019-01-03T06:09:28.456Z,4.00
2019-01-03T06:12:20.693Z,4.77
2019-01-03T06:15:11.087Z,3.93
2019-01-03T06:18:00.461Z,4.17
2019-01-03T06:21:08.465Z,4.00
2019-01-03T06:24:01.923Z,4.00
2019-01-03T06:26:47.377Z,4.07
2019-01-03T06:29:35.348Z,4.40
2019-01-03T06:32:23.386Z,3.33
2019-01-03T06:35:21.671Z,3.40
2019-01-03T06:38:09.297Z,4.27
2019-01-03T06:40:57.026Z,4.40
2019-01-03T06:43:58.172Z,5.53
2019-01-03T06:46:46.110Z,3.13
2019-01-03T06:49:34.050Z,3.90
2019-01-03T06:52:29.457Z,4.47
2019-01-03T06:55:21.796Z,3.50
2019-01-03T06:58:23.149Z,4.27
2019-01-03T07:01:10.984Z,4.00
2019-01-03T07:04:00.751Z,4.07
2019-01-03T07:06:48.597Z,4.00
2019-01-03T07:09:36.533Z,4.07
2019-01-03T07:12:20.068Z,4.30
2019-01-03T07:15:07.900Z,4.03
2019-01-03T07:18:10.379Z,4.13
2019-01-03T07:21:08.964Z,3.47
2019-01-03T07:23:59.864Z,4.00
2019-01-03T07:27:01.324Z,3.80
2019-01-03T07:29:50.591Z,3.93
2019-01-03T07:32:40.166Z,3.70
2019-01-03T07:35:28.003Z,4.23
2019-01-03T07:38:22.622Z,4.40
2019-01-03T07:41:17.901Z,3.30
2019-01-03T07:44:25.294Z,4.50
2019-01-03T07:47:09.801Z,4.30
2019-01-03T07:50:01.987Z,4.43
2019-01-03T07:52:51.156Z,4.60
2019-01-03T07:55:49.534Z,3.83
2019-01-03T07:58:37.267Z,4.90
2019-01-03T08:01:24.999Z,6.00
2019-01-03T08:04:13.242Z,5.23
2019-01-03T08:07:05.375Z,4.77
2019-01-03T08:10:03.758Z,5.20
2019-01-03T08:12:55.893Z,5.37
2019-01-03T08:15:50.693Z,4.97
2019-01-03T08:18:39.445Z,5.03
2019-01-03T08:21:27.381Z,5.13
2019-01-03T08:24:16.445Z,5.50
2019-01-03T08:27:08.785Z,5.87
2019-01-03T08:30:04.101Z,5.67
2019-01-03T08:32:52.440Z,6.37
2019-01-03T08:35:44.254Z,6.37
2019-01-03T08:38:42.033Z,6.40
2019-01-03T08:41:31.097Z,6.60
2019-01-03T08:44:19.343Z,6.23
2019-01-03T08:47:23.779Z,6.70
2019-01-03T08:50:15.898Z,6.40
2019-01-03T08:53:07.726Z,6.43
2019-01-03T08:55:53.398Z,6.70
2019-01-03T08:58:46.159Z,7.07
2019-01-03T09:01:34.301Z,6.70
2019-01-03T09:04:23.569Z,7.00
2019-01-03T09:07:24.919Z,7.40
2019-01-03T09:10:32.314Z,7.87
2019-01-03T09:13:39.909Z,6.70
2019-01-03T09:16:37.984Z,8.10
2019-01-03T09:19:26.943Z,6.03
2019-01-03T09:22:18.773Z,6.10
2019-01-03T09:25:16.743Z,4.97
2019-01-03T09:28:18.093Z,6.13
2019-01-03T09:31:13.198Z,6.33
2019-01-03T09:34:08.201Z,5.47
2019-01-03T09:36:56.239Z,5.47
2019-01-03T09:39:43.868Z,5.13
2019-01-03T09:42:33.034Z,5.20
2019-01-03T09:45:03.302Z,5.00
2019-01-03T09:47:33.540Z,4.93
2019-01-03T09:50:03.881Z,4.87
2019-01-03T09:52:34.145Z,5.27
2019-01-03T09:55:04.482Z,6.10
2019-01-03T09:57:34.900Z,5.30
2019-01-03T10:00:05.827Z,4.37
2019-01-03T10:02:36.790Z,5.00
2019-01-03T10:05:07.954Z,4.67
2019-01-03T10:07:38.200Z,4.57
2019-01-03T10:10:11.048Z,4.47
2019-01-03T10:12:46.174Z,4.60
2019-01-03T10:15:19.950Z,4.80
2019-01-03T10:17:51.353Z,4.33
2019-01-03T10:20:25.562Z,4.50
2019-01-03T10:22:55.507Z,4.57
2019-01-03T10:25:25.432Z,4.93
2019-01-03T10:27:55.434Z,4.57
2019-01-03T10:30:25.470Z,4.70
2019-01-03T10:32:55.779Z,4.33
2019-01-03T10:35:26.110Z,4.47
2019-01-03T10:37:56.386Z,5.63
2019-01-03T10:40:26.759Z,4.90
2019-01-03T10:42:57.046Z,5.60
2019-01-03T10:45:27.638Z,5.10
2019-01-03T10:47:57.895Z,4.83
2019-01-03T10:50:28.179Z,5.27
2019-01-03T10:52:58.444Z,5.17
2019-01-03T10:55:28.606Z,5.07
2019-01-03T10:57:58.957Z,4.50
2019-01-03T11:00:29.305Z,4.73
2019-01-03T11:02:59.483Z,4.73
2019-01-03T11:05:29.804Z,5.47
2019-01-03T11:08:00.067Z,5.10
2019-01-03T11:10:30.297Z,5.40
2019-01-03T11:13:00.558Z,4.70
2019-01-03T11:15:30.797Z,5.27
2019-01-03T11:18:01.060Z,5.20
2019-01-03T11:20:31.348Z,5.60
2019-01-03T11:23:02.493Z,5.73
2019-01-03T11:25:32.752Z,4.77
2019-01-03T11:28:02.962Z,5.13
2019-01-03T11:30:33.148Z,4.93
2019-01-03T11:33:03.482Z,4.27
2019-01-03T11:35:33.774Z,5.63
2019-01-03T11:38:04.046Z,4.87
2019-01-03T11:40:34.260Z,5.27
2019-01-03T11:43:04.546Z,5.87
2019-01-03T11:45:34.729Z,7.03
2019-01-03T11:48:05.187Z,5.30
2019-01-03T11:50:35.488Z,5.10
2019-01-03T11:53:06.860Z,5.50
2019-01-03T11:55:37.134Z,5.00
2019-01-03T11:58:07.395Z,5.07
2019-01-03T12:00:37.650Z,4.50
2019-01-03T12:03:07.895Z,4.67
2019-01-03T12:05:39.513Z,5.00
2019-01-03T12:08:09.805Z,4.63
2019-01-03T12:10:39.972Z,4.87
2019-01-03T12:13:10.316Z,4.50
2019-01-03T12:15:40.599Z,5.70
2019-01-03T12:18:10.832Z,5.33
2019-01-03T12:20:41.139Z,4.93
2019-01-03T12:23:12.398Z,6.60
2019-01-03T12:25:42.651Z,9.33
2019-01-03T12:28:12.980Z,5.50
2019-01-03T12:30:43.310Z,4.27
2019-01-03T12:33:13.490Z,4.07
2019-01-03T12:35:43.777Z,4.40
2019-01-03T12:38:14.064Z,4.23
2019-01-03T12:40:44.286Z,4.33
2019-01-03T12:43:14.562Z,4.17
2019-01-03T12:45:44.831Z,4.40
2019-01-03T12:48:15.049Z,4.43
2019-01-03T12:50:45.338Z,4.97
2019-01-03T12:53:15.588Z,4.50
2019-01-03T12:55:45.819Z,4.40
2019-01-03T12:58:16.109Z,4.23
2019-01-03T13:00:46.621Z,4.00
2019-01-03T13:03:16.842Z,4.10
2019-01-03T13:05:47.266Z,4.20
2019-01-03T13:08:17.554Z,4.10
2019-01-03T13:10:47.823Z,5.03
2019-01-03T13:13:18.106Z,4.50
2019-01-03T13:15:48.271Z,4.40
2019-01-03T13:18:18.421Z,4.60
2019-01-03T13:20:48.801Z,4.83
2019-01-03T13:23:19.618Z,5.20
2019-01-03T13:25:51.237Z,4.97
2019-01-03T13:28:21.591Z,5.30
2019-01-03T13:30:51.845Z,5.63
2019-01-03T13:33:22.108Z,5.60
2019-01-03T13:35:52.359Z,5.57
2019-01-03T13:38:22.624Z,4.77
2019-01-03T13:40:53.029Z,4.70
2019-01-03T13:43:23.341Z,3.67
2019-01-03T13:45:53.774Z,5.47
2019-01-03T13:48:24.075Z,5.23
2019-01-03T13:50:54.421Z,4.20
2019-01-03T13:53:24.704Z,4.83
2019-01-03T13:55:54.973Z,4.73
2019-01-03T13:58:25.263Z,4.60
2019-01-03T14:00:55.613Z,4.60
2019-01-03T14:03:25.761Z,5.80
2019-01-03T14:05:56.262Z,5.10
2019-01-03T14:08:26.569Z,5.13
2019-01-03T14:10:56.829Z,5.07
2019-01-03T14:13:27.147Z,5.33
2019-01-03T14:15:57.507Z,4.67
2019-01-03T14:18:27.879Z,3.90
2019-01-03T14:20:58.195Z,5.17
2019-01-03T14:23:28.444Z,6.77
2019-01-03T14:25:59.366Z,7.53
2019-01-03T14:28:31.265Z,6.20
2019-01-03T14:31:01.602Z,7.60
2019-01-03T14:33:31.835Z,8.33
2019-01-03T14:36:02.256Z,10.53
2019-01-03T14:38:33.332Z,10.20
2019-01-03T14:41:03.487Z,9.97
2019-01-03T14:43:33.777Z,9.13
2019-01-03T14:46:04.049Z,9.10
2019-01-03T14:48:34.248Z,9.50
2019-01-03T14:51:04.536Z,14.07
2019-01-03T14:53:34.841Z,8.33
2019-01-03T14:56:05.056Z,7.90
2019-01-03T14:58:35.398Z,8.37
2019-01-03T15:01:05.577Z,10.97
2019-01-03T15:03:35.822Z,11.97
2019-01-03T15:06:06.106Z,14.23
2019-01-03T15:08:38.124Z,15.17
2019-01-03T15:11:09.097Z,14.93
2019-01-03T15:13:39.863Z,13.40
2019-01-03T15:16:10.145Z,16.80
2019-01-03T15:18:40.717Z,15.80
2019-01-03T15:21:13.328Z,25.50
2019-01-03T15:23:43.387Z,85.37
2019-01-03T15:26:16.565Z,26.83
2019-01-03T15:28:46.926Z,29.80
2019-01-03T15:31:18.159Z,17.93
2019-01-03T15:33:48.445Z,34.70
2019-01-03T15:36:22.146Z,78.83
2019-01-03T15:38:52.625Z,20.77
2019-01-03T15:41:24.685Z,25.57
2019-01-03T15:44:02.228Z,29.13
2019-01-03T15:46:33.480Z,18.23
2019-01-03T15:49:03.790Z,20.50
2019-01-03T15:51:34.185Z,17.13
2019-01-03T15:54:04.513Z,18.60
2019-01-03T15:56:35.072Z,19.57
2019-01-03T15:59:05.323Z,25.67
2019-01-03T16:01:35.563Z,18.77
2019-01-03T16:04:05.865Z,13.87
2019-01-03T16:06:36.125Z,13.80
2019-01-03T16:09:07.214Z,11.03
2019-01-03T16:11:37.516Z,11.63
2019-01-03T16:14:07.776Z,12.80
2019-01-03T16:16:38.208Z,11.83
2019-01-03T16:19:08.528Z,11.50
2019-01-03T16:21:38.753Z,17.77
2019-01-03T16:24:08.952Z,25.50
2019-01-03T16:26:39.296Z,27.20
2019-01-03T16:29:09.539Z,15.00
2019-01-03T16:31:39.934Z,16.03
2019-01-03T16:34:11.229Z,16.73
2019-01-03T16:36:41.549Z,15.47
2019-01-03T16:39:11.750Z,12.80
2019-01-03T16:41:41.958Z,12.77
2019-01-03T16:44:12.197Z,11.47
2019-01-03T16:46:42.416Z,13.10
2019-01-03T16:49:12.685Z,13.80
2019-01-03T16:51:42.926Z,15.63
2019-01-03T16:54:13.201Z,24.27
2019-01-03T16:56:43.453Z,19.77
2019-01-03T16:59:13.694Z,49.87
2019-01-03T17:01:44.833Z,33.83
2019-01-03T17:04:15.120Z,42.53
2019-01-03T17:06:45.463Z,46.50
2019-01-03T17:09:15.747Z,18.70
2019-01-03T17:11:45.912Z,14.33
2019-01-03T17:14:16.070Z,16.73
2019-01-03T17:16:46.451Z,15.70
2019-01-03T17:19:16.783Z,13.63
2019-01-03T17:21:47.097Z,15.90
2019-01-03T17:24:17.862Z,16.27
2019-01-03T17:26:48.134Z,16.93
2019-01-03T17:29:18.443Z,16.80
2019-01-03T17:31:48.675Z,20.17
2019-01-03T17:34:18.923Z,17.43
2019-01-03T17:36:49.177Z,21.40
2019-01-03T17:39:19.418Z,15.97
2019-01-03T17:41:49.701Z,11.70
2019-01-03T17:44:20.009Z,12.73
2019-01-03T17:46:50.280Z,12.93
2019-01-03T17:49:20.546Z,23.40
2019-01-03T17:51:50.836Z,25.37
2019-01-03T17:54:21.048Z,15.10
2019-01-03T17:56:51.308Z,13.00
2019-01-03T17:59:21.698Z,10.93
2019-01-03T18:01:51.898Z,10.70
2019-01-03T18:04:22.193Z,10.33
2019-01-03T18:06:52.441Z,12.80
2019-01-03T18:09:22.686Z,11.60
2019-01-03T18:11:52.970Z,11.03
2019-01-03T18:14:23.258Z,15.27
2019-01-03T18:16:53.426Z,10.93
2019-01-03T18:19:23.729Z,10.63
2019-01-03T18:21:53.923Z,12.70
2019-01-03T18:24:24.179Z,18.80
2019-01-03T18:26:54.481Z,20.33
2019-01-03T18:29:25.115Z,9.60
2019-01-03T18:31:55.365Z,9.97
2019-01-03T18:34:25.684Z,10.07
2019-01-03T18:36:56.091Z,8.70
2019-01-03T18:39:27.564Z,9.63
2019-01-03T18:41:58.273Z,8.80
2019-01-03T18:44:28.665Z,9.07
2019-01-03T18:47:01.669Z,10.27
2019-01-03T18:49:32.077Z,9.63
2019-01-03T18:52:02.304Z,10.17
2019-01-03T18:54:32.584Z,9.27
2019-01-03T18:57:02.801Z,10.13
2019-01-03T18:59:33.072Z,11.90
2019-01-03T19:02:03.500Z,17.30
2019-01-03T19:04:33.698Z,25.97
2019-01-03T19:07:04.219Z,37.90
2019-01-03T19:09:34.902Z,68.63
2019-01-03T19:12:05.313Z,38.63
2019-01-03T19:14:35.587Z,24.23
2019-01-03T19:17:09.336Z,10.23
2019-01-03T19:19:40.048Z,10.13
2019-01-03T19:22:11.675Z,10.03
2019-01-03T19:24:41.910Z,9.77
2019-01-03T19:27:12.113Z,10.10
2019-01-03T19:29:50.889Z,11.73
2019-01-03T19:32:21.269Z,10.13
2019-01-03T19:35:10.600Z,12.10
2019-01-03T19:37:40.854Z,12.17
2019-01-03T19:40:13.996Z,12.70
2019-01-03T19:42:45.537Z,12.17
2019-01-03T19:45:15.702Z,11.63
2019-01-03T19:47:46.041Z,13.10
2019-01-03T19:50:18.575Z,11.37
2019-01-03T19:52:49.170Z,11.43
2019-01-03T19:55:19.567Z,12.50
2019-01-03T19:57:49.840Z,12.90
2019-01-03T20:00:20.104Z,14.53
2019-01-03T20:02:50.412Z,14.80
2019-01-03T20:05:20.860Z,13.23
2019-01-03T20:07:51.228Z,11.00
2019-01-03T20:10:21.480Z,9.33
2019-01-03T20:12:51.740Z,8.63
2019-01-03T20:15:21.997Z,7.70
2019-01-03T20:17:52.363Z,7.37
2019-01-03T20:20:22.623Z,8.17
2019-01-03T20:22:52.806Z,9.27
2019-01-03T20:25:23.130Z,11.73
2019-01-03T20:27:53.408Z,7.93
2019-01-03T20:30:23.608Z,11.17
2019-01-03T20:32:53.854Z,11.50
2019-01-03T20:35:24.178Z,24.33
2019-01-03T20:37:54.501Z,14.30
2019-01-03T20:40:25.891Z,11.13
2019-01-03T20:42:56.169Z,9.33
2019-01-03T20:45:29.407Z,8.90
2019-01-03T20:47:59.919Z,11.80
2019-01-03T20:50:30.085Z,8.67
2019-01-03T20:53:00.306Z,8.20
2019-01-03T20:55:30.513Z,10.93
2019-01-03T20:58:00.906Z,10.33
2019-01-03T21:00:31.158Z,11.97
2019-01-03T21:03:01.523Z,9.90
2019-01-03T21:05:31.830Z,11.23
2019-01-03T21:08:02.061Z,11.53
2019-01-03T21:10:32.309Z,14.77
2019-01-03T21:13:02.613Z,13.17
2019-01-03T21:15:32.937Z,13.13
2019-01-03T21:18:03.300Z,13.13
2019-01-03T21:20:33.572Z,10.87
2019-01-03T21:23:03.890Z,11.73
2019-01-03T21:25:34.194Z,11.90
2019-01-03T21:28:04.531Z,12.10
2019-01-03T21:30:34.758Z,12.57
2019-01-03T21:33:05.020Z,13.20
2019-01-03T21:35:35.402Z,15.23
2019-01-03T21:38:05.785Z,15.37
2019-01-03T21:40:36.109Z,17.90
2019-01-03T21:43:07.397Z,19.57
2019-01-03T21:45:37.644Z,21.90
2019-01-03T21:48:07.912Z,26.10
2019-01-03T21:50:38.127Z,20.90
2019-01-03T21:53:08.367Z,22.53
2019-01-03T21:55:38.662Z,29.93
2019-01-03T21:58:08.919Z,24.07
2019-01-03T22:00:39.226Z,28.20
2019-01-03T22:03:09.522Z,16.67
2019-01-03T22:05:39.803Z,23.73
2019-01-03T22:08:10.003Z,19.27
2019-01-03T22:10:40.298Z,16.47
2019-01-03T22:13:10.550Z,17.37
2019-01-03T22:15:40.794Z,19.57
2019-01-03T22:18:11.050Z,19.97
2019-01-03T22:20:41.298Z,21.27
2019-01-03T22:23:11.580Z,20.20
2019-01-03T22:25:41.848Z,15.20
2019-01-03T22:28:12.118Z,14.37
2019-01-03T22:30:44.111Z,14.23
2019-01-03T22:33:14.459Z,12.77
2019-01-03T22:35:44.721Z,14.53
2019-01-03T22:38:14.992Z,15.63
2019-01-03T22:40:45.294Z,15.67
2019-01-03T22:43:16.477Z,16.27
2019-01-03T22:45:46.712Z,16.00
2019-01-03T22:48:16.990Z,15.93
2019-01-03T22:50:47.274Z,15.80
2019-01-03T22:53:17.505Z,16.50
2019-01-03T22:55:47.766Z,22.97
2019-01-03T22:58:18.035Z,31.67
2019-01-03T23:00:51.124Z,33.00
2019-01-03T23:03:21.438Z,30.70
2019-01-03T23:05:51.768Z,25.60
2019-01-03T23:08:22.036Z,25.63
2019-01-03T23:10:52.353Z,19.27
2019-01-03T23:13:22.652Z,16.77
2019-01-03T23:15:53.031Z,21.47
2019-01-03T23:18:23.476Z,18.27
2019-01-03T23:20:53.838Z,14.90
2019-01-03T23:23:24.202Z,16.13
2019-01-03T23:25:54.540Z,16.37
2019-01-03T23:28:24.772Z,17.70
2019-01-03T23:30:55.052Z,16.53
2019-01-03T23:33:25.332Z,17.40
2019-01-03T23:35:55.429Z,16.27
2019-01-03T23:38:25.924Z,14.57
2019-01-03T23:40:56.173Z,15.13
2019-01-03T23:43:26.417Z,14.60
2019-01-03T23:45:57.605Z,14.90
2019-01-03T23:48:27.905Z,14.73
2019-01-03T23:50:58.290Z,17.07
2019-01-03T23:53:28.509Z,15.17
2019-01-03T23:55:59.692Z,12.63
2019-01-03T23:58:30.002Z,14.50
